Time;durP1;ratioP1;P1;durP2;ratioP2;P2;SDS_P1;SDS_P2;PMS_P1;PMS_P2;Temp;Humidity;BMP_temperature;BMP_pressure;BME280_temperature;BME280_humidity;BME280_pressure;Samples;Min_cycle;Max_cycle;Signal;HPM_P1;HPM_P2
2022/07/22 00:01:49;;;;;;;;;;;;;;;24.54;67.15;101249.75;4917001;29;4267;-62
2022/07/22 00:04:16;;;;;;;;;;;;;;;24.52;67.25;101253.31;4919717;29;4173;-62
2022/07/22 00:06:43;;;;;;;;;;;;;;;24.52;66.92;101253.31;4916411;29;4276;-62
2022/07/22 00:09:09;;;;;;;;;;;;;;;24.53;66.86;101257.69;4917768;29;5291;-62
2022/07/22 00:11:35;;;;;;;;;;;;;;;24.52;66.83;101250.41;4914675;29;4395;-62
2022/07/22 00:14:02;;;;;;;;;;;;;;;24.54;66.60;101256.28;4916004;29;4362;-62
2022/07/22 00:16:28;;;;;;;;;;;;;;;24.54;66.51;101262.06;4912371;29;4185;-63
2022/07/22 00:18:55;;;;;;;;;;;;;;;24.52;66.57;101264.91;4917768;29;4613;-62
2022/07/22 00:21:22;;;;;;;;;;;;;;;24.52;66.69;101264.91;4919089;29;4255;-62
2022/07/22 00:23:48;;;;;;;;;;;;;;;24.51;66.34;101260.53;4920712;29;4232;-62
2022/07/22 00:26:14;;;;;;;;;;;;;;;24.53;66.38;101265.63;4917836;29;4350;-65
2022/07/22 00:28:41;;;;;;;;;;;;;;;24.51;66.35;101263.44;4919256;29;4527;-63
2022/07/22 00:31:08;;;;;;;;;;;;;;;24.54;66.08;101267.13;4917508;29;5609;-62
2022/07/22 00:33:34;;;;;;;;;;;;;;;24.53;66.03;101271.41;4915755;29;4535;-63
2022/07/22 00:36:01;;;;;;;;;;;;;;;24.52;65.94;101269.94;4905302;29;5543;-62
2022/07/22 00:38:27;;;;;;;;;;;;;;;24.48;65.83;101270.53;4920123;29;4186;-62
2022/07/22 00:40:53;;;;;;;;;;;;;;;24.51;65.85;101274.25;4920166;29;5384;-64
2022/07/22 00:43:20;;;;;;;;;;;;;;;24.51;65.72;101275.00;4918716;29;4329;-62
2022/07/22 00:45:46;;;;;;;;;;;;;;;24.51;65.51;101275.00;4915729;29;4090;-63
2022/07/22 00:48:13;;;;;;;;;;;;;;;24.49;65.58;101274.16;4914793;29;4207;-63
2022/07/22 00:50:39;;;;;;;;;;;;;;;24.46;65.42;101273.31;4916323;29;4212;-63
2022/07/22 00:53:06;;;;;;;;;;;;;;;24.49;65.30;101282.84;4918897;29;4200;-63
2022/07/22 00:55:33;;;;;;;;;;;;;;;24.50;65.35;101279.31;4898446;29;4103;-63
2022/07/22 00:57:59;;;;;;;;;;;;;;;24.52;65.28;101275.75;4917407;29;4269;-63
2022/07/22 01:00:26;;;;;;;;;;;;;;;24.49;65.06;101272.03;4918602;29;4623;-63
2022/07/22 01:02:52;;;;;;;;;;;;;;;24.48;65.16;101282.13;4918582;29;4214;-63
2022/07/22 01:05:19;;;;;;;;;;;;;;;24.49;64.88;101279.97;4917999;29;4348;-63
2022/07/22 01:07:45;;;;;;;;;;;;;;;24.49;65.05;101277.06;4918220;29;4237;-63
2022/07/22 01:10:12;;;;;;;;;;;;;;;24.46;65.00;101274.09;4917397;29;4247;-63
2022/07/22 01:12:39;;;;;;;;;;;;;;;24.46;64.87;101273.31;4915900;29;5638;-63
2022/07/22 01:15:05;;;;;;;;;;;;;;;24.45;65.14;101277.66;4916543;29;4309;-63
2022/07/22 01:17:32;;;;;;;;;;;;;;;24.46;64.98;101274.09;4915493;29;4313;-63
2022/07/22 01:20:03;;;;;;;;;;;;;;;24.48;64.84;101285.00;4877254;29;4308;-66
2022/07/22 01:22:30;;;;;;;;;;;;;;;24.46;64.72;101273.31;4897609;29;4189;-63
2022/07/22 01:24:59;;;;;;;;;;;;;;;24.46;64.93;101270.44;4916606;29;4229;-64
2022/07/22 01:27:25;;;;;;;;;;;;;;;24.45;64.96;101272.59;4916506;29;4183;-63
2022/07/22 01:29:52;;;;;;;;;;;;;;;24.45;64.92;101266.81;4914028;29;4076;-63
2022/07/22 01:32:18;;;;;;;;;;;;;;;24.44;64.99;101265.34;4913440;29;4154;-63
2022/07/22 01:34:46;;;;;;;;;;;;;;;24.43;64.86;101268.88;4904442;29;4481;-62
2022/07/22 01:37:12;;;;;;;;;;;;;;;24.41;64.88;101269.53;4895887;29;4289;-63
2022/07/22 01:39:39;;;;;;;;;;;;;;;24.42;64.95;101268.16;4905502;29;4153;-62
2022/07/22 01:42:05;;;;;;;;;;;;;;;24.43;64.59;101269.63;4921107;29;4624;-62
2022/07/22 01:44:32;;;;;;;;;;;;;;;24.43;64.67;101268.88;4919311;29;4053;-62
2022/07/22 01:46:58;;;;;;;;;;;;;;;24.45;64.81;101271.84;4913100;29;4225;-64
2022/07/22 01:49:25;;;;;;;;;;;;;;;24.45;64.52;101271.84;4910403;29;4287;-62
2022/07/22 01:51:51;;;;;;;;;;;;;;;24.44;64.51;101265.34;4904754;29;4247;-62
2022/07/22 01:54:18;;;;;;;;;;;;;;;24.44;64.54;101276.16;4907495;29;4188;-62
2022/07/22 01:56:45;;;;;;;;;;;;;;;24.43;64.69;101268.88;4902679;29;4438;-64
2022/07/22 01:59:11;;;;;;;;;;;;;;;24.45;64.38;101277.66;4915872;29;4214;-63
2022/07/22 02:01:38;;;;;;;;;;;;;;;24.41;64.51;101271.69;4921402;29;4438;-63
2022/07/22 02:04:04;;;;;;;;;;;;;;;24.40;64.69;101276.75;4924044;29;5249;-63
2022/07/22 02:06:31;;;;;;;;;;;;;;;24.41;64.53;101283.28;4922812;29;4190;-63
2022/07/22 02:08:58;;;;;;;;;;;;;;;24.41;64.52;101275.34;4916092;29;5409;-63
2022/07/22 02:11:33;;;;;;;;;;;;;;;24.42;64.41;101279.00;4904848;29;4211;-63
2022/07/22 02:14:00;;;;;;;;;;;;;;;24.40;64.47;101273.13;4902771;29;5333;-65
2022/07/22 02:16:28;;;;;;;;;;;;;;;24.38;64.41;101278.84;4898608;29;4175;-62
2022/07/22 02:18:54;;;;;;;;;;;;;;;24.36;64.35;101281.66;4902155;29;4190;-62
2022/07/22 02:21:21;;;;;;;;;;;;;;;24.35;64.67;101277.25;4920138;29;4297;-63
2022/07/22 02:23:51;;;;;;;;;;;;;;;24.36;64.48;101281.66;4902790;29;4291;-63
2022/07/22 02:26:17;;;;;;;;;;;;;;;24.38;64.40;101273.06;4902338;29;4319;-63
2022/07/22 02:28:44;;;;;;;;;;;;;;;24.38;64.38;101287.53;4902471;29;4273;-63
2022/07/22 02:31:10;;;;;;;;;;;;;;;24.34;64.36;101288.09;4897742;29;4194;-63
2022/07/22 02:33:37;;;;;;;;;;;;;;;24.34;64.52;101284.47;4913543;29;4202;-62
2022/07/22 02:36:04;;;;;;;;;;;;;;;24.33;64.46;101283.00;4901311;29;4216;-62
2022/07/22 02:38:33;;;;;;;;;;;;;;;24.33;64.50;101277.94;4888504;29;4320;-62
2022/07/22 02:41:00;;;;;;;;;;;;;;;24.33;64.27;101283.00;4919512;29;4596;-62
2022/07/22 02:43:26;;;;;;;;;;;;;;;24.33;64.47;101280.09;4908495;29;4254;-64
2022/07/22 02:45:53;;;;;;;;;;;;;;;24.32;64.29;101269.94;4900813;29;4314;-63
2022/07/22 02:48:20;;;;;;;;;;;;;;;24.31;64.19;101288.72;4914135;29;5475;-67
2022/07/22 02:50:48;;;;;;;;;;;;;;;24.28;64.32;101287.13;4915707;29;4249;-63
2022/07/22 02:53:20;;;;;;;;;;;;;;;24.28;64.14;101287.13;4903247;29;4506;-63
2022/07/22 02:55:46;;;;;;;;;;;;;;;24.25;64.13;101289.94;4921693;29;4178;-63
2022/07/22 02:58:12;;;;;;;;;;;;;;;24.28;64.07;101298.72;4920300;29;4549;-63
2022/07/22 03:00:41;;;;;;;;;;;;;;;24.27;64.20;101297.25;4902385;29;4207;-63
2022/07/22 03:03:08;;;;;;;;;;;;;;;24.25;64.29;101284.16;4914903;29;4128;-63
2022/07/22 03:05:36;;;;;;;;;;;;;;;24.23;64.05;101292.78;4901465;29;4246;-63
2022/07/22 03:08:27;;;;;;;;;;;;;;;24.23;64.00;101287.00;4920097;29;4537;-63
2022/07/22 03:10:54;;;;;;;;;;;;;;;24.21;64.25;101295.59;4907763;29;4288;-64
2022/07/22 03:13:21;;;;;;;;;;;;;;;24.21;64.27;101292.72;4918204;29;4388;-63
2022/07/22 03:15:47;;;;;;;;;;;;;;;24.22;64.07;101293.44;4919483;29;5363;-62
2022/07/22 03:18:14;;;;;;;;;;;;;;;24.22;63.92;101285.50;4899796;29;4046;-63
2022/07/22 03:20:41;;;;;;;;;;;;;;;24.19;63.98;101283.97;4909330;29;5332;-62
2022/07/22 03:23:07;;;;;;;;;;;;;;;24.21;63.95;101281.13;4914949;29;4241;-63
2022/07/22 03:25:34;;;;;;;;;;;;;;;24.18;63.79;101296.94;4901344;29;4290;-63
2022/07/22 03:28:00;;;;;;;;;;;;;;;24.19;63.78;101297.66;4907886;29;4513;-62
2022/07/22 03:30:27;;;;;;;;;;;;;;;24.19;64.14;101298.44;4914484;29;5007;-62
2022/07/22 03:32:53;;;;;;;;;;;;;;;24.17;64.00;101289.66;4901811;29;4291;-70
2022/07/22 03:35:21;;;;;;;;;;;;;;;24.18;64.07;101296.94;4904977;29;4206;-62
2022/07/22 03:37:47;;;;;;;;;;;;;;;24.17;64.11;101301.25;4900107;29;4256;-62
2022/07/22 03:40:16;;;;;;;;;;;;;;;24.17;64.04;101304.13;4903675;29;4640;-63
2022/07/22 03:42:43;;;;;;;;;;;;;;;24.18;63.95;101302.72;4904993;29;4878;-65
2022/07/22 03:45:12;;;;;;;;;;;;;;;24.18;64.18;101310.66;4915245;29;4754;-63
2022/07/22 03:47:40;;;;;;;;;;;;;;;24.15;64.16;101295.38;4897744;29;4104;-62
2022/07/22 03:50:06;;;;;;;;;;;;;;;24.14;64.10;101299.66;4901265;29;4366;-62
2022/07/22 03:52:34;;;;;;;;;;;;;;;24.14;64.16;101308.34;4919279;29;4304;-62
2022/07/22 03:55:04;;;;;;;;;;;;;;;24.13;64.04;101306.13;4900827;29;4224;-62
2022/07/22 03:57:30;;;;;;;;;;;;;;;24.13;64.20;101306.88;4909175;29;4639;-62
2022/07/22 04:00:03;;;;;;;;;;;;;;;24.13;64.35;101306.88;4895703;29;4276;-62
2022/07/22 04:02:39;;;;;;;;;;;;;;;24.12;63.96;101308.28;4918787;29;4257;-62
2022/07/22 04:05:09;;;;;;;;;;;;;;;24.13;63.98;101311.91;4900472;29;4233;-62
2022/07/22 04:07:36;;;;;;;;;;;;;;;24.13;64.05;101318.44;4921106;29;4285;-62
2022/07/22 04:10:05;;;;;;;;;;;;;;;24.12;64.16;101311.19;4893190;29;4510;-62
2022/07/22 04:12:35;;;;;;;;;;;;;;;24.10;64.25;101313.22;4893336;29;4304;-63
2022/07/22 04:15:10;;;;;;;;;;;;;;;23.55;66.30;101308.94;4897515;29;4230;-62
2022/07/22 04:17:37;;;;;;;;;;;;;;;23.55;66.58;101314.72;4918866;29;5596;-62
2022/07/22 04:20:04;;;;;;;;;;;;;;;23.26;67.63;101307.75;4901478;29;4301;-61
2022/07/22 04:22:39;;;;;;;;;;;;;;;23.05;68.19;101311.94;4903135;29;5641;-61
2022/07/22 04:25:05;;;;;;;;;;;;;;;23.12;68.20;101310.78;4905984;29;5494;-62
2022/07/22 04:27:32;;;;;;;;;;;;;;;23.16;68.24;101304.44;4911185;29;4264;-62
2022/07/22 04:29:59;;;;;;;;;;;;;;;23.14;68.10;101308.00;4902369;29;5689;-64
2022/07/22 04:32:27;;;;;;;;;;;;;;;23.05;68.38;101316.97;4897920;29;4275;-62
2022/07/22 04:34:54;;;;;;;;;;;;;;;22.94;69.10;101307.84;4915729;29;4202;-64
2022/07/22 04:37:20;;;;;;;;;;;;;;;22.99;68.88;101312.41;4912076;29;4184;-63
2022/07/22 04:39:46;;;;;;;;;;;;;;;22.92;68.80;101313.53;4905478;29;5550;-63
2022/07/22 04:42:13;;;;;;;;;;;;;;;23.06;68.59;101306.91;4902617;29;4192;-63
2022/07/22 04:44:40;;;;;;;;;;;;;;;23.03;68.76;101320.50;4897464;29;4248;-63
2022/07/22 04:47:06;;;;;;;;;;;;;;;23.00;68.83;101308.13;4896470;29;4423;-60
2022/07/22 04:49:36;;;;;;;;;;;;;;;23.03;68.64;101314.00;4898714;29;4251;-65
2022/07/22 04:52:04;;;;;;;;;;;;;;;23.20;68.15;101321.94;4903196;29;4245;-62
2022/07/22 04:54:39;;;;;;;;;;;;;;;23.09;68.52;101326.56;4917927;29;4216;-64
2022/07/22 04:57:06;;;;;;;;;;;;;;;23.18;67.92;101324.75;4905473;29;4273;-64
2022/07/22 04:59:33;;;;;;;;;;;;;;;23.10;68.53;101322.25;4893477;29;4290;-64
2022/07/22 05:01:59;;;;;;;;;;;;;;;23.15;68.36;101320.28;4907430;29;4325;-62
2022/07/22 05:04:27;;;;;;;;;;;;;;;23.10;68.29;101315.75;4900952;29;4631;-62
2022/07/22 05:06:55;;;;;;;;;;;;;;;23.15;68.47;101320.28;4896040;29;4300;-63
2022/07/22 05:09:21;;;;;;;;;;;;;;;23.12;68.75;101322.34;4900271;29;4247;-62
2022/07/22 05:11:48;;;;;;;;;;;;;;;23.24;68.38;101327.16;4907639;29;4284;-62
2022/07/22 05:14:17;;;;;;;;;;;;;;;23.27;67.92;101325.81;4905483;29;5236;-62
2022/07/22 05:16:44;;;;;;;;;;;;;;;23.24;68.05;101322.13;4900042;29;4299;-62
2022/07/22 05:19:10;;;;;;;;;;;;;;;23.08;69.10;101322.16;4917755;29;5162;-61
2022/07/22 05:21:38;;;;;;;;;;;;;;;23.29;68.41;101317.97;4897822;29;5292;-60
2022/07/22 05:24:06;;;;;;;;;;;;;;;23.33;68.23;101329.72;4899077;29;4362;-58
2022/07/22 05:26:33;;;;;;;;;;;;;;;23.31;68.36;101326.75;4919516;29;4228;-59
2022/07/22 05:28:59;;;;;;;;;;;;;;;23.37;67.96;101329.16;4904169;29;4273;-57
2022/07/22 05:31:27;;;;;;;;;;;;;;;23.20;68.64;101321.94;4905309;29;4107;-63
2022/07/22 05:33:54;;;;;;;;;;;;;;;23.20;68.76;101336.38;4916203;29;4209;-59
2022/07/22 05:36:27;;;;;;;;;;;;;;;23.40;68.30;101334.34;4908903;29;4288;-60
2022/07/22 05:38:55;;;;;;;;;;;;;;;23.29;68.57;101329.53;4898287;29;4196;-59
2022/07/22 05:41:22;;;;;;;;;;;;;;;23.54;68.02;101330.56;4900006;29;4316;-56
2022/07/22 05:43:50;;;;;;;;;;;;;;;23.60;67.92;101334.44;4915911;29;4247;-56
2022/07/22 05:46:17;;;;;;;;;;;;;;;23.28;68.88;101336.72;4898180;29;4256;-57
2022/07/22 05:48:44;;;;;;;;;;;;;;;23.34;68.79;101331.22;4895223;29;4245;-58
2022/07/22 05:51:11;;;;;;;;;;;;;;;23.44;67.92;101338.81;4913277;29;4362;-57
2022/07/22 05:53:38;;;;;;;;;;;;;;;23.24;68.45;101333.66;4900098;29;4112;-56
2022/07/22 05:56:04;;;;;;;;;;;;;;;23.31;68.24;101338.28;4894102;29;5588;-53
2022/07/22 05:58:34;;;;;;;;;;;;;;;23.24;68.35;101339.44;4897073;29;4431;-55
2022/07/22 06:01:00;;;;;;;;;;;;;;;23.23;68.52;101337.97;4895702;29;4282;-56
2022/07/22 06:03:27;;;;;;;;;;;;;;;23.41;67.65;101341.63;4897992;29;4267;-66
2022/07/22 06:05:53;;;;;;;;;;;;;;;23.57;67.04;101343.66;4899347;29;4445;-70
2022/07/22 06:08:20;;;;;;;;;;;;;;;23.68;66.57;101336.91;4914522;29;4263;-63
2022/07/22 06:10:49;;;;;;;;;;;;;;;23.72;66.45;101337.06;4897081;29;4151;-67
2022/07/22 06:13:16;;;;;;;;;;;;;;;23.73;66.65;101341.47;4901793;29;5479;-65
2022/07/22 06:15:43;;;;;;;;;;;;;;;23.75;66.52;101341.53;4917030;29;4273;-64
2022/07/22 06:18:10;;;;;;;;;;;;;;;23.77;66.20;101330.06;4908939;29;4291;-64
2022/07/22 06:20:37;;;;;;;;;;;;;;;23.79;66.25;101344.59;4894161;29;4176;-63
2022/07/22 06:23:04;;;;;;;;;;;;;;;23.82;65.84;101334.63;4917793;29;4209;-60
2022/07/22 06:25:32;;;;;;;;;;;;;;;23.85;65.93;101328.94;4901351;29;4275;-61
2022/07/22 06:28:22;;;;;;;;;;;;;;;23.86;65.60;101325.34;4903147;29;5305;-61
2022/07/22 06:30:49;;;;;;;;;;;;;;;23.88;65.34;101333.38;4917649;29;4211;-62
2022/07/22 06:33:17;;;;;;;;;;;;;;;23.88;65.51;101330.47;4899581;29;5033;-66
2022/07/22 06:35:43;;;;;;;;;;;;;;;23.90;65.33;101339.25;4900209;29;5270;-63
2022/07/22 06:38:10;;;;;;;;;;;;;;;23.90;65.22;101334.19;4892065;29;6393;-64
2022/07/22 06:41:19;;;;;;;;;;;;;;;23.92;65.03;101333.53;4915146;29;4240;-65
2022/07/22 06:44:14;;;;;;;;;;;;;;;23.94;64.98;101336.50;4917392;29;4074;-62
2022/07/22 06:47:01;;;;;;;;;;;;;;;23.93;64.94;101329.22;4897180;29;4353;-65
2022/07/22 06:49:30;;;;;;;;;;;;;;;23.94;64.91;101336.50;4901287;29;4251;-61
2022/07/22 06:51:58;;;;;;;;;;;;;;;23.94;64.71;101336.50;4899857;29;4924;-62
2022/07/22 06:54:24;;;;;;;;;;;;;;;23.94;64.65;101331.47;4916182;29;4072;-64
2022/07/22 06:56:53;;;;;;;;;;;;;;;23.95;64.70;101343.78;4898407;29;4194;-62
2022/07/22 06:59:25;;;;;;;;;;;;;;;23.95;64.84;101338.00;4902622;29;4140;-62
2022/07/22 07:01:52;;;;;;;;;;;;;;;23.97;64.54;101340.97;4913586;29;5374;-64
2022/07/22 07:04:19;;;;;;;;;;;;;;;23.96;64.51;101334.44;4894053;29;4219;-61
2022/07/22 07:06:46;;;;;;;;;;;;;;;23.97;64.20;101332.28;4901622;29;4342;-64
2022/07/22 07:09:23;;;;;;;;;;;;;;;23.95;64.26;101326.41;4915084;29;4217;-61
2022/07/22 07:12:01;;;;;;;;;;;;;;;24.00;64.30;101333.84;4899673;29;4222;-65
2022/07/22 07:14:50;;;;;;;;;;;;;;;23.99;64.07;101333.09;4873692;29;4251;-61
2022/07/22 07:17:37;;;;;;;;;;;;;;;24.01;64.20;101341.13;4915426;29;4140;-71
2022/07/22 07:20:06;;;;;;;;;;;;;;;24.00;64.28;101334.56;4910853;29;4204;-66
2022/07/22 07:22:33;;;;;;;;;;;;;;;24.11;64.24;101338.63;4905525;29;5388;-69
2022/07/22 07:25:04;;;;;;;;;;;;;;;24.19;63.99;101341.81;4916604;29;4233;-70
2022/07/22 07:27:48;;;;;;;;;;;;;;;24.28;64.13;101345.00;4904600;29;4125;-67
2022/07/22 07:30:17;;;;;;;;;;;;;;;24.24;64.21;101340.56;4895012;29;4191;-65
2022/07/22 07:32:43;;;;;;;;;;;;;;;24.37;64.33;101336.00;4909418;29;4372;-63
2022/07/22 07:35:10;;;;;;;;;;;;;;;24.42;63.80;101337.63;4898812;29;4236;-70
2022/07/22 07:37:36;;;;;;;;;;;;;;;24.48;63.43;101342.91;4901788;29;4275;-74
2022/07/22 07:40:03;;;;;;;;;;;;;;;24.49;63.50;101335.72;4907832;29;5250;-66
2022/07/22 07:42:30;;;;;;;;;;;;;;;24.51;63.38;101337.94;4911409;29;5418;-67
2022/07/22 07:44:56;;;;;;;;;;;;;;;24.42;63.56;101342.69;4914093;29;4263;-72
2022/07/22 07:47:22;;;;;;;;;;;;;;;24.35;64.11;101338.03;4902222;29;5219;-68
2022/07/22 07:49:49;;;;;;;;;;;;;;;23.97;65.55;101340.97;4900100;29;4255;-67
2022/07/22 07:52:16;;;;;;;;;;;;;;;23.68;66.14;101345.56;4891512;29;4110;-78
2022/07/22 07:54:43;;;;;;;;;;;;;;;23.92;64.99;101328.50;4906549;29;4274;-76
2022/07/22 07:57:29;;;;;;;;;;;;;;;23.83;64.15;101336.09;4901558;29;4261;-77
2022/07/22 07:59:56;;;;;;;;;;;;;;;24.00;63.98;101336.72;4895490;29;5440;-77
2022/07/22 08:02:22;;;;;;;;;;;;;;;24.10;64.00;101331.34;4913161;29;4095;-77
2022/07/22 08:04:49;;;;;;;;;;;;;;;23.96;64.47;101330.78;4915429;29;4511;-69
2022/07/22 08:07:23;;;;;;;;;;;;;;;24.12;63.62;101340.13;4889348;29;5458;-69
2022/07/22 08:09:52;;;;;;;;;;;;;;;23.96;63.79;101336.56;4914899;29;4197;-69
2022/07/22 08:12:58;;;;;;;;;;;;;;;23.96;63.75;101339.47;4917384;29;4471;-64
2022/07/22 08:15:38;;;;;;;;;;;;;;;24.06;63.39;101342.03;4897400;29;4380;-69
2022/07/22 08:18:07;;;;;;;;;;;;;;;24.04;63.58;101348.47;4916080;29;4371;-69
2022/07/22 08:20:34;;;;;;;;;;;;;;;24.06;63.12;101336.97;4897894;29;4546;-68
2022/07/22 08:23:00;;;;;;;;;;;;;;;23.93;63.60;101344.44;4894531;29;4304;-69
2022/07/22 08:25:29;;;;;;;;;;;;;;;23.69;64.72;101347.06;4895618;29;4230;-65
2022/07/22 08:27:56;;;;;;;;;;;;;;;23.88;63.94;101344.94;4915467;29;5266;-65
2022/07/22 08:30:23;;;;;;;;;;;;;;;23.83;64.30;101350.56;4914519;29;4251;-72
2022/07/22 08:32:50;;;;;;;;;;;;;;;23.55;65.41;101344.34;4909214;29;4225;-65
2022/07/22 08:35:16;;;;;;;;;;;;;;;23.71;65.32;101349.28;4877932;29;4370;-68
2022/07/22 08:37:45;;;;;;;;;;;;;;;23.55;65.79;101355.19;4896601;29;4803;-67
2022/07/22 08:40:12;;;;;;;;;;;;;;;23.86;64.55;101351.38;4911380;29;5153;-63
2022/07/22 08:42:39;;;;;;;;;;;;;;;23.81;64.75;101350.47;4890929;29;4460;-68
2022/07/22 08:45:06;;;;;;;;;;;;;;;23.75;64.98;101358.91;4910334;29;4221;-68
2022/07/22 08:47:37;;;;;;;;;;;;;;;23.65;65.52;101352.69;4889412;29;4295;-68
2022/07/22 08:50:17;;;;;;;;;;;;;;;23.82;64.97;101365.66;4914440;29;4202;-64
2022/07/22 08:53:15;;;;;;;;;;;;;;;23.63;65.11;101372.84;4900465;29;4408;-70
2022/07/22 08:55:44;;;;;;;;;;;;;;;23.69;65.05;101376.00;4879353;29;4205;-61
2022/07/22 08:58:11;;;;;;;;;;;;;;;23.81;65.31;101364.19;4911597;29;5473;-64
2022/07/22 09:00:38;;;;;;;;;;;;;;;23.66;66.36;101377.28;4896604;29;4203;-69
2022/07/22 09:03:21;;;;;;;;;;;;;;;23.84;66.23;101380.22;4903288;29;4596;-72
2022/07/22 09:05:51;;;;;;;;;;;;;;;23.78;66.30;101374.94;4897411;29;4724;-74
2022/07/22 09:08:18;;;;;;;;;;;;;;;23.50;66.91;101380.28;4913866;29;4500;-68
2022/07/22 09:11:16;;;;;;;;;;;;;;;23.58;67.91;101385.66;4912671;29;4350;-77
2022/07/22 09:14:11;;;;;;;;;;;;;;;23.62;68.57;101385.81;4901792;29;4332;-76
2022/07/22 09:16:47;;;;;;;;;;;;;;;23.47;69.37;101377.97;4904714;29;4526;-73
2022/07/22 09:19:37;;;;;;;;;;;;;;;23.76;68.71;101377.00;4909074;29;4222;-76
2022/07/22 09:22:37;;;;;;;;;;;;;;;24.00;68.09;101368.56;4901228;29;5387;-74
2022/07/22 09:25:18;;;;;;;;;;;;;;;24.11;67.70;101384.91;4898710;29;4567;-74
2022/07/22 09:28:05;;;;;;;;;;;;;;;24.21;67.89;101375.88;4886457;29;4214;-73
2022/07/22 09:30:53;;;;;;;;;;;;;;;24.41;66.98;101381.69;4918403;29;4567;-73
2022/07/22 09:33:22;;;;;;;;;;;;;;;24.60;65.75;101371.56;4898597;29;4340;-78
2022/07/22 09:36:00;;;;;;;;;;;;;;;24.66;65.55;101378.31;4895764;29;4248;-69
2022/07/22 09:38:27;;;;;;;;;;;;;;;24.70;64.60;101382.81;4903853;29;4320;-67
2022/07/22 09:40:55;;;;;;;;;;;;;;;24.54;65.08;101382.94;4900879;29;4255;-74
2022/07/22 09:43:22;;;;;;;;;;;;;;;24.49;65.05;101382.03;4916800;29;4279;-68
2022/07/22 09:45:49;;;;;;;;;;;;;;;24.74;64.42;101394.50;4903535;29;4222;-70
2022/07/22 09:48:18;;;;;;;;;;;;;;;24.81;63.37;101387.56;4899110;29;4373;-68
2022/07/22 09:50:56;;;;;;;;;;;;;;;24.78;63.68;101388.88;4919956;29;4224;-70
2022/07/22 09:53:43;;;;;;;;;;;;;;;24.67;64.30;101391.41;4917572;29;4187;-74
2022/07/22 09:56:14;;;;;;;;;;;;;;;24.66;64.47;101389.19;4905849;29;5150;-70
2022/07/22 09:58:41;;;;;;;;;;;;;;;24.57;64.35;101391.03;4915408;29;4258;-72
2022/07/22 10:01:21;;;;;;;;;;;;;;;24.67;64.41;101390.69;4906007;29;4260;-80
2022/07/22 10:03:48;;;;;;;;;;;;;;;24.55;63.25;101396.00;4905605;29;4210;-81
2022/07/22 10:06:14;;;;;;;;;;;;;;;24.24;63.94;101397.72;4920459;29;4194;-71
2022/07/22 10:08:41;;;;;;;;;;;;;;;23.79;64.97;101395.91;4915622;29;4204;-67
2022/07/22 10:11:08;;;;;;;;;;;;;;;24.25;63.97;101393.41;4898552;29;4223;-75
2022/07/22 10:13:37;;;;;;;;;;;;;;;24.12;63.74;101385.66;4897486;29;4345;-74
2022/07/22 10:16:05;;;;;;;;;;;;;;;24.10;64.36;101389.22;4899440;29;4213;-71
2022/07/22 10:18:31;;;;;;;;;;;;;;;24.08;63.94;101380.44;4903277;29;4242;-72
2022/07/22 10:21:05;;;;;;;;;;;;;;;24.01;64.87;101384.53;4894217;29;4319;-72
2022/07/22 10:23:32;;;;;;;;;;;;;;;24.30;64.05;101376.94;4919852;29;5370;-73
2022/07/22 10:25:59;;;;;;;;;;;;;;;24.35;64.08;101376.44;4919131;29;4293;-72
2022/07/22 10:28:27;;;;;;;;;;;;;;;24.31;64.03;101379.16;4918267;29;4178;-72
2022/07/22 10:31:07;;;;;;;;;;;;;;;24.29;63.37;101376.19;4922159;29;4260;-72
2022/07/22 10:33:37;;;;;;;;;;;;;;;24.23;64.56;101382.50;4901521;29;4247;-79
2022/07/22 10:36:03;;;;;;;;;;;;;;;24.45;63.74;101376.81;4921031;29;5427;-79
2022/07/22 10:38:30;;;;;;;;;;;;;;;24.14;64.48;101377.78;4906168;29;4297;-81
2022/07/22 10:40:57;;;;;;;;;;;;;;;24.22;64.47;101383.16;4898557;29;4276;-72
2022/07/22 10:43:27;;;;;;;;;;;;;;;24.13;64.62;101382.09;4919962;29;4282;-71
2022/07/22 10:46:02;;;;;;;;;;;;;;;24.11;64.57;101379.13;4917824;29;4191;-73
2022/07/22 10:48:28;;;;;;;;;;;;;;;24.09;64.50;101387.72;4921166;29;4265;-77
2022/07/22 10:51:04;;;;;;;;;;;;;;;24.00;64.93;101385.91;4922715;29;5496;-83
2022/07/22 10:53:39;;;;;;;;;;;;;;;24.23;65.00;101391.19;4912035;29;4413;-73
2022/07/22 10:56:14;;;;;;;;;;;;;;;24.18;64.84;101395.31;4921788;29;5442;-71
2022/07/22 10:58:41;;;;;;;;;;;;;;;24.35;64.48;101401.72;4924175;29;4190;-77
2022/07/22 11:01:12;;;;;;;;;;;;;;;24.35;64.64;101401.72;4923307;29;4402;-72
2022/07/22 11:03:39;;;;;;;;;;;;;;;23.85;64.93;101396.19;4924511;29;4266;-71
2022/07/22 11:06:20;;;;;;;;;;;;;;;24.15;64.14;101396.66;4924733;29;4303;-73
2022/07/22 11:08:50;;;;;;;;;;;;;;;24.22;64.31;101394.72;4925324;29;4327;-70
2022/07/22 11:11:16;;;;;;;;;;;;;;;24.47;64.28;101402.22;4923819;29;4344;-73
2022/07/22 11:13:44;;;;;;;;;;;;;;;24.14;64.02;101406.72;4919602;29;4310;-73
2022/07/22 11:16:20;;;;;;;;;;;;;;;24.14;63.85;101400.94;4917436;29;5271;-67
2022/07/22 11:18:57;;;;;;;;;;;;;;;24.45;63.46;101393.44;4927563;29;4201;-72
2022/07/22 11:21:24;;;;;;;;;;;;;;;24.47;63.23;101390.66;4927587;29;4280;-69
2022/07/22 11:23:55;;;;;;;;;;;;;;;24.34;63.77;101389.41;4932488;29;4199;-74
2022/07/22 11:26:39;;;;;;;;;;;;;;;24.45;63.27;101387.66;4923976;29;4354;-70
2022/07/22 11:29:05;;;;;;;;;;;;;;;24.38;63.35;101383.78;4904351;29;4241;-73
2022/07/22 11:31:32;;;;;;;;;;;;;;;24.38;63.46;101388.84;4922300;29;4323;-72
2022/07/22 11:34:05;;;;;;;;;;;;;;;24.23;63.44;101379.59;4919242;29;4321;-72
2022/07/22 11:36:32;;;;;;;;;;;;;;;24.29;63.16;101375.47;4923394;29;4285;-72
2022/07/22 11:38:58;;;;;;;;;;;;;;;24.39;62.30;101370.03;4919435;29;5280;-72
2022/07/22 11:41:25;;;;;;;;;;;;;;;24.10;62.13;101366.06;4924446;29;4281;-72
2022/07/22 11:43:51;;;;;;;;;;;;;;;24.18;62.62;101377.94;4906151;29;5557;-72
2022/07/22 11:46:18;;;;;;;;;;;;;;;23.93;63.39;101384.91;4921299;29;4188;-73
2022/07/22 11:48:44;;;;;;;;;;;;;;;23.86;64.02;101388.25;4919650;29;5106;-71
2022/07/22 11:51:11;;;;;;;;;;;;;;;23.99;63.72;101401.78;4918334;29;4140;-71
2022/07/22 11:53:46;;;;;;;;;;;;;;;24.24;63.19;101386.88;4910509;29;4592;-72
2022/07/22 11:56:13;;;;;;;;;;;;;;;23.99;63.04;101381.53;4909697;29;5479;-67
2022/07/22 11:58:40;;;;;;;;;;;;;;;24.34;62.69;101383.63;4914848;29;5556;-68
2022/07/22 12:01:14;;;;;;;;;;;;;;;24.67;61.72;101385.63;4912418;29;5049;-69
2022/07/22 12:03:44;;;;;;;;;;;;;;;24.75;61.75;101396.00;4920026;29;5369;-70
2022/07/22 12:06:11;;;;;;;;;;;;;;;24.61;61.44;101388.28;4919405;29;4194;-72
2022/07/22 12:08:44;;;;;;;;;;;;;;;24.61;61.56;101387.53;4919665;29;4292;-68
2022/07/22 12:11:11;;;;;;;;;;;;;;;24.42;61.96;101389.72;4900913;29;4235;-73
2022/07/22 12:13:40;;;;;;;;;;;;;;;24.16;61.86;101392.34;4919551;29;4305;-70
2022/07/22 12:16:23;;;;;;;;;;;;;;;24.51;61.49;101396.59;4918172;29;4136;-73
2022/07/22 12:19:09;;;;;;;;;;;;;;;24.70;60.97;101400.19;4922264;29;4186;-77
2022/07/22 12:21:37;;;;;;;;;;;;;;;24.19;61.60;101384.47;4919813;29;4323;-72
2022/07/22 12:24:06;;;;;;;;;;;;;;;23.95;61.92;101398.72;4900123;29;4383;-69
2022/07/22 12:26:40;;;;;;;;;;;;;;;24.45;61.38;101387.66;4916913;29;4406;-66
2022/07/22 12:29:13;;;;;;;;;;;;;;;24.81;60.54;101393.34;4919446;29;4332;-71
2022/07/22 12:31:46;;;;;;;;;;;;;;;24.75;60.53;101390.22;4918773;29;4282;-68
2022/07/22 12:34:13;;;;;;;;;;;;;;;24.16;61.23;101386.53;4916078;29;4397;-67
2022/07/22 12:36:42;;;;;;;;;;;;;;;24.52;60.83;101389.38;4917147;29;4338;-67
2022/07/22 12:39:18;;;;;;;;;;;;;;;24.39;60.81;101385.25;4917342;29;5263;-69
2022/07/22 12:41:45;;;;;;;;;;;;;;;24.31;60.98;101384.22;4915669;29;4246;-67
2022/07/22 12:44:18;;;;;;;;;;;;;;;24.56;60.19;101392.44;4918893;29;4578;-70
2022/07/22 12:46:45;;;;;;;;;;;;;;;24.41;60.74;101390.38;4918593;29;4503;-77
2022/07/22 12:49:12;;;;;;;;;;;;;;;24.60;60.57;101389.69;4905792;29;4057;-72
2022/07/22 12:51:38;;;;;;;;;;;;;;;24.57;60.07;101388.13;4918926;29;4441;-69
2022/07/22 12:54:05;;;;;;;;;;;;;;;24.63;59.42;101391.25;4916746;29;4163;-70
2022/07/22 12:56:33;;;;;;;;;;;;;;;24.51;59.47;101390.81;4916682;29;4153;-69
2022/07/22 12:59:02;;;;;;;;;;;;;;;24.60;59.55;101389.69;4917475;29;4319;-77
2022/07/22 13:01:29;;;;;;;;;;;;;;;24.67;59.14;101391.41;4922626;29;4121;-70